createdAt,value
2023-04-17T00:00:07.068Z,70.07
2023-04-17T00:02:40.124Z,58.97
2023-04-17T00:05:10.578Z,64.03
2023-04-17T00:07:39.314Z,106.00
2023-04-17T00:10:09.261Z,92.63
2023-04-17T00:12:37.613Z,381.60
2023-04-17T00:15:06.411Z,150.90
2023-04-17T00:17:34.408Z,194.43
2023-04-17T00:20:02.408Z,121.80
2023-04-17T00:22:31.721Z,92.40
2023-04-17T00:24:59.679Z,122.07
2023-04-17T00:27:27.631Z,86.90
2023-04-17T00:29:55.639Z,81.40
2023-04-17T00:32:23.601Z,86.40
2023-04-17T00:34:53.087Z,124.40
2023-04-17T00:37:22.424Z,91.07
2023-04-17T00:39:51.751Z,151.07
2023-04-17T00:42:19.708Z,254.73
2023-04-17T00:44:47.661Z,139.10
2023-04-17T00:47:15.651Z,436.27
2023-04-17T00:49:43.721Z,87.33
2023-04-17T00:52:12.050Z,95.77
2023-04-17T00:54:40.019Z,55.63
2023-04-17T00:57:09.376Z,119.43
2023-04-17T00:59:39.024Z,479.77
2023-04-17T01:02:07.029Z,213.30
2023-04-17T01:04:35.209Z,198.57
2023-04-17T01:07:03.711Z,337.53
2023-04-17T01:09:32.267Z,198.30
2023-04-17T01:12:20.137Z,138.03
2023-04-17T01:14:48.628Z,318.00
2023-04-17T01:17:18.921Z,146.53
2023-04-17T01:19:47.333Z,80.17
2023-04-17T01:22:16.341Z,106.43
2023-04-17T01:24:45.937Z,59.53
2023-04-17T01:27:14.944Z,219.10
2023-04-17T01:29:43.821Z,62.30
2023-04-17T01:32:12.237Z,99.90
2023-04-17T01:34:40.264Z,192.67
2023-04-17T01:37:08.237Z,124.27
2023-04-17T01:39:37.121Z,91.10
2023-04-17T01:42:06.976Z,85.33
2023-04-17T01:44:37.429Z,114.67
2023-04-17T01:47:05.652Z,66.73
2023-04-17T01:49:33.875Z,114.17
2023-04-17T01:52:01.912Z,129.20
2023-04-17T01:54:29.967Z,163.33
2023-04-17T01:56:57.960Z,188.00
2023-04-17T01:59:27.326Z,269.30
2023-04-17T02:01:56.174Z,161.47
2023-04-17T02:04:24.570Z,136.70
2023-04-17T02:06:52.614Z,80.70
2023-04-17T02:09:20.594Z,223.20
2023-04-17T02:11:48.540Z,151.17
2023-04-17T02:14:18.748Z,91.43
2023-04-17T02:16:48.340Z,97.03
2023-04-17T02:19:16.298Z,81.00
2023-04-17T02:21:44.287Z,272.90
2023-04-17T02:24:12.246Z,345.40
2023-04-17T02:26:40.602Z,101.87
2023-04-17T02:29:08.669Z,65.20
2023-04-17T02:31:36.749Z,96.27
2023-04-17T02:34:06.092Z,87.07
2023-04-17T02:36:34.042Z,124.70
2023-04-17T02:39:01.999Z,71.00
2023-04-17T02:41:29.932Z,91.43
2023-04-17T02:43:59.352Z,50.30
2023-04-17T02:46:27.377Z,60.87
2023-04-17T02:48:55.434Z,164.53
2023-04-17T02:51:24.746Z,222.67
2023-04-17T02:53:52.696Z,56.40
2023-04-17T02:56:20.716Z,293.40
2023-04-17T02:58:48.693Z,153.60
2023-04-17T03:01:16.681Z,96.37
2023-04-17T03:03:45.194Z,70.37
2023-04-17T03:06:13.328Z,134.93
2023-04-17T03:08:43.457Z,129.17
2023-04-17T03:11:11.625Z,667.23
2023-04-17T03:13:39.637Z,221.80
2023-04-17T03:16:08.394Z,321.50
2023-04-17T03:18:39.986Z,117.33
2023-04-17T03:21:08.118Z,107.80
2023-04-17T03:23:36.319Z,74.17
2023-04-17T03:26:05.846Z,70.10
2023-04-17T03:28:33.895Z,90.87
2023-04-17T03:31:01.847Z,141.40
2023-04-17T03:33:29.802Z,107.17
2023-04-17T03:35:57.760Z,217.57
2023-04-17T03:38:25.729Z,111.83
2023-04-17T03:40:53.695Z,97.80
2023-04-17T03:43:22.993Z,146.93
2023-04-17T03:45:50.985Z,241.00
2023-04-17T03:48:18.936Z,116.80
2023-04-17T03:50:46.935Z,144.87
2023-04-17T03:53:14.872Z,81.00
2023-04-17T03:55:42.831Z,472.03
2023-04-17T03:58:11.045Z,87.90
2023-04-17T04:00:40.456Z,174.47
2023-04-17T04:03:08.530Z,201.47
2023-04-17T04:05:36.603Z,387.03
2023-04-17T04:08:04.825Z,523.20
2023-04-17T04:10:33.431Z,341.77
2023-04-17T04:13:01.457Z,163.43
2023-04-17T04:15:29.434Z,464.47
2023-04-17T04:17:58.776Z,170.30
2023-04-17T04:20:26.828Z,152.87
2023-04-17T04:22:57.347Z,98.93
2023-04-17T04:25:25.859Z,138.30
2023-04-17T04:27:53.831Z,133.43
2023-04-17T04:30:22.020Z,82.57
2023-04-17T04:32:51.476Z,69.67
2023-04-17T04:35:20.874Z,55.47
2023-04-17T04:37:48.803Z,108.57
2023-04-17T04:40:16.865Z,149.17
2023-04-17T04:42:49.850Z,196.97
2023-04-17T04:45:18.785Z,96.63
2023-04-17T04:47:46.757Z,191.50
2023-04-17T04:50:14.745Z,89.57
2023-04-17T04:52:44.060Z,141.57
2023-04-17T04:55:12.655Z,144.97
2023-04-17T04:57:40.732Z,113.10
2023-04-17T05:00:10.068Z,46.70
2023-04-17T05:02:38.151Z,109.20
2023-04-17T05:05:09.266Z,141.93
2023-04-17T05:07:37.242Z,69.93
2023-04-17T05:10:07.738Z,256.90
2023-04-17T05:12:36.085Z,207.07
2023-04-17T05:15:04.206Z,82.93
2023-04-17T05:17:32.176Z,75.07
2023-04-17T05:20:01.243Z,246.63
2023-04-17T05:22:29.290Z,401.27
2023-04-17T05:24:57.257Z,495.80
2023-04-17T05:27:26.856Z,213.90
2023-04-17T05:29:54.817Z,376.60
2023-04-17T05:32:22.838Z,88.00
2023-04-17T05:34:50.806Z,129.03
2023-04-17T05:37:18.837Z,109.07
2023-04-17T05:39:46.795Z,461.73
2023-04-17T05:42:14.778Z,299.70
2023-04-17T05:44:44.103Z,271.93
2023-04-17T05:47:12.082Z,373.93
2023-04-17T05:49:40.200Z,450.83
2023-04-17T05:52:08.175Z,335.67
2023-04-17T05:54:36.181Z,117.43
2023-04-17T05:57:04.270Z,345.93
2023-04-17T05:59:32.200Z,175.80
2023-04-17T06:02:02.017Z,140.70
2023-04-17T06:04:30.549Z,373.37
2023-04-17T06:06:58.821Z,777.90
2023-04-17T06:09:27.421Z,308.57
2023-04-17T06:11:55.688Z,331.33
2023-04-17T06:14:23.625Z,608.93
2023-04-17T06:16:51.767Z,312.07
2023-04-17T06:19:22.318Z,426.67
2023-04-17T06:21:50.291Z,174.07
2023-04-17T06:24:18.991Z,439.17
2023-04-17T06:26:47.005Z,401.07
2023-04-17T06:29:15.726Z,234.17
2023-04-17T06:31:43.798Z,520.40
2023-04-17T06:34:11.759Z,317.03
2023-04-17T06:36:41.208Z,444.43
2023-04-17T06:39:09.297Z,690.30
2023-04-17T06:41:37.390Z,201.13
2023-04-17T06:44:05.627Z,230.27
2023-04-17T06:46:33.642Z,255.37
2023-04-17T06:49:02.679Z,417.27
2023-04-17T06:51:30.651Z,425.30
2023-04-17T06:54:00.260Z,272.67
2023-04-17T06:56:28.281Z,514.73
2023-04-17T06:58:57.902Z,519.73
2023-04-17T07:01:27.956Z,205.67
2023-04-17T07:03:56.126Z,513.73
2023-04-17T07:06:24.390Z,608.63
2023-04-17T07:08:54.151Z,296.20
2023-04-17T07:11:24.834Z,466.23
2023-04-17T07:13:52.767Z,543.43
2023-04-17T07:16:22.840Z,306.03
2023-04-17T07:18:51.725Z,372.07
2023-04-17T07:21:19.974Z,825.47
2023-04-17T07:23:47.993Z,402.90
2023-04-17T07:26:16.038Z,776.17
2023-04-17T07:28:45.508Z,812.73
2023-04-17T07:31:13.510Z,828.83
2023-04-17T07:33:41.453Z,649.43
2023-04-17T07:36:12.291Z,483.50
2023-04-17T07:38:41.236Z,264.10
2023-04-17T07:41:09.293Z,588.73
2023-04-17T07:43:37.250Z,693.73
2023-04-17T07:46:06.783Z,365.13
2023-04-17T07:48:34.839Z,450.53
2023-04-17T07:51:02.827Z,452.43
2023-04-17T07:53:30.923Z,309.90
2023-04-17T07:55:59.377Z,399.13
2023-04-17T07:58:27.357Z,512.20
2023-04-17T08:00:55.602Z,408.50
2023-04-17T08:03:25.834Z,500.53
2023-04-17T08:05:54.166Z,504.93
2023-04-17T08:08:23.706Z,600.23
2023-04-17T08:10:52.214Z,198.17
2023-04-17T08:13:20.464Z,267.63
2023-04-17T08:15:48.452Z,414.30
2023-04-17T08:18:16.432Z,486.30
2023-04-17T08:20:45.765Z,258.57
2023-04-17T08:23:13.750Z,258.43
2023-04-17T08:25:41.717Z,444.90
2023-04-17T08:28:09.704Z,373.03
2023-04-17T08:30:37.700Z,424.57
2023-04-17T08:33:05.901Z,759.07
2023-04-17T08:35:34.026Z,341.40
2023-04-17T08:38:03.370Z,445.73
2023-04-17T08:40:31.648Z,265.73
2023-04-17T08:43:02.534Z,212.83
2023-04-17T08:45:30.816Z,547.93
2023-04-17T08:47:58.864Z,633.00
2023-04-17T08:50:26.840Z,233.43
2023-04-17T08:52:54.817Z,684.00
2023-04-17T08:55:29.022Z,619.50
2023-04-17T08:57:58.623Z,574.90
2023-04-17T09:00:28.460Z,651.40
2023-04-17T09:02:58.028Z,709.67
2023-04-17T09:05:30.274Z,654.57
2023-04-17T09:08:10.271Z,577.23
2023-04-17T09:10:41.053Z,827.53
2023-04-17T09:13:09.869Z,617.33
2023-04-17T09:15:38.098Z,745.93
2023-04-17T09:18:06.356Z,668.63
2023-04-17T09:20:48.860Z,856.27
2023-04-17T09:23:16.955Z,512.87
2023-04-17T09:25:46.730Z,649.27
2023-04-17T09:28:16.217Z,999.90
2023-04-17T09:30:44.497Z,930.23
2023-04-17T09:33:13.026Z,739.73
2023-04-17T09:35:41.161Z,852.37
2023-04-17T09:38:09.192Z,731.73
2023-04-17T09:40:42.339Z,601.33
2023-04-17T09:43:11.918Z,738.07
2023-04-17T09:45:44.343Z,711.80
2023-04-17T09:48:13.923Z,723.90
2023-04-17T09:50:41.978Z,946.50
2023-04-17T09:53:10.170Z,986.90
2023-04-17T09:55:39.317Z,999.90
2023-04-17T09:58:08.421Z,999.90
2023-04-17T10:00:38.699Z,999.90
2023-04-17T10:03:09.327Z,968.80
2023-04-17T10:05:37.681Z,869.87
2023-04-17T10:08:06.634Z,999.90
2023-04-17T10:10:36.510Z,999.90
2023-04-17T10:13:08.031Z,999.90
2023-04-17T10:15:37.807Z,999.90
2023-04-17T10:18:23.063Z,999.90
2023-04-17T10:20:53.185Z,999.90
2023-04-17T10:23:32.783Z,999.90
2023-04-17T10:26:43.185Z,999.90
2023-04-17T10:29:12.769Z,999.90
2023-04-17T10:32:25.976Z,999.90
2023-04-17T10:34:57.100Z,999.90
2023-04-17T10:38:04.552Z,999.90
2023-04-17T10:40:34.034Z,999.90
2023-04-17T10:43:07.533Z,999.90
2023-04-17T10:45:59.363Z,999.90
2023-04-17T10:48:29.268Z,999.90
2023-04-17T10:50:58.628Z,999.90
2023-04-17T10:53:43.609Z,999.90
2023-04-17T10:56:13.347Z,999.90
2023-04-17T10:58:57.609Z,999.90
2023-04-17T11:01:28.914Z,999.90
2023-04-17T11:03:59.560Z,999.90
2023-04-17T11:06:29.863Z,999.90
2023-04-17T11:08:58.486Z,999.90
2023-04-17T11:11:43.053Z,999.90
2023-04-17T11:14:14.814Z,999.90
2023-04-17T11:16:44.372Z,999.90
2023-04-17T11:19:14.170Z,999.90
2023-04-17T11:21:46.322Z,999.90
2023-04-17T11:24:14.310Z,999.90
2023-04-17T11:26:46.262Z,999.90
2023-04-17T11:29:17.736Z,999.90
2023-04-17T11:31:46.722Z,999.90
2023-04-17T11:34:17.036Z,999.90
2023-04-17T11:36:51.535Z,999.90
2023-04-17T11:39:20.276Z,999.90
2023-04-17T11:41:48.509Z,990.80
2023-04-17T11:44:18.545Z,999.90
2023-04-17T11:46:50.418Z,999.90
2023-04-17T11:49:24.433Z,999.90
2023-04-17T11:51:53.890Z,999.90
2023-04-17T11:54:26.570Z,999.90
2023-04-17T11:57:02.218Z,999.90
2023-04-17T11:59:34.518Z,999.90
2023-04-17T12:02:03.377Z,999.90
2023-04-17T12:04:34.217Z,999.90
2023-04-17T12:07:04.558Z,999.90
2023-04-17T12:09:32.932Z,999.90
2023-04-17T12:12:01.608Z,999.90
2023-04-17T12:14:29.601Z,999.90
2023-04-17T12:16:57.590Z,999.90
2023-04-17T12:19:27.461Z,999.90
2023-04-17T12:21:55.726Z,999.90
2023-04-17T12:24:25.490Z,999.90
2023-04-17T12:26:53.738Z,999.90
2023-04-17T12:29:32.290Z,999.90
2023-04-17T12:32:10.351Z,980.40
2023-04-17T12:34:38.581Z,999.90
2023-04-17T12:37:06.561Z,999.90
2023-04-17T12:39:36.033Z,999.90
2023-04-17T12:42:04.011Z,999.90
2023-04-17T12:44:32.144Z,999.90
2023-04-17T12:47:00.130Z,999.90
2023-04-17T12:49:28.270Z,999.90
2023-04-17T12:51:56.229Z,999.90
2023-04-17T12:54:24.237Z,999.90
2023-04-17T12:56:53.575Z,999.90
2023-04-17T12:59:21.552Z,999.90
2023-04-17T13:01:49.597Z,999.90
2023-04-17T13:04:17.914Z,999.90
2023-04-17T13:06:46.317Z,999.90
2023-04-17T13:09:14.516Z,999.90
2023-04-17T13:11:42.587Z,999.90
2023-04-17T13:14:12.144Z,999.90
2023-04-17T13:16:40.419Z,999.90
2023-04-17T13:19:08.404Z,999.90
2023-04-17T13:21:36.385Z,999.90
2023-04-17T13:24:04.588Z,999.90
2023-04-17T13:26:32.746Z,999.90
2023-04-17T13:29:00.704Z,999.90
2023-04-17T13:31:30.201Z,999.90
2023-04-17T13:33:58.217Z,999.90
2023-04-17T13:36:26.218Z,999.90
2023-04-17T13:38:54.162Z,999.90
2023-04-17T13:41:22.406Z,999.90
2023-04-17T13:43:50.368Z,999.90
2023-04-17T13:46:18.475Z,999.90
2023-04-17T13:48:48.004Z,999.90
2023-04-17T13:51:16.155Z,999.90
2023-04-17T13:53:44.157Z,999.90
2023-04-17T13:56:12.181Z,999.90
2023-04-17T13:58:41.177Z,999.90
2023-04-17T14:01:12.260Z,999.90
2023-04-17T14:03:43.009Z,999.90
2023-04-17T14:06:14.255Z,999.90
2023-04-17T14:08:44.119Z,999.90
2023-04-17T14:11:12.437Z,999.90
2023-04-17T14:13:40.473Z,999.90
2023-04-17T14:16:08.684Z,999.90
2023-04-17T14:18:36.762Z,999.90
2023-04-17T14:21:05.026Z,999.90
2023-04-17T14:23:34.487Z,999.90
2023-04-17T14:26:02.514Z,999.90
2023-04-17T14:28:30.448Z,999.90
2023-04-17T14:30:58.479Z,999.90
2023-04-17T14:33:26.480Z,999.90
2023-04-17T14:35:56.694Z,999.90
2023-04-17T14:38:24.779Z,999.90
2023-04-17T14:40:54.292Z,999.90
2023-04-17T14:43:22.284Z,999.90
2023-04-17T14:45:51.382Z,999.90
2023-04-17T14:48:20.901Z,999.90
2023-04-17T14:50:48.870Z,999.90
2023-04-17T14:53:17.930Z,999.90
2023-04-17T14:55:46.887Z,999.90
2023-04-17T14:58:16.175Z,999.90
2023-04-17T15:00:44.189Z,999.90
2023-04-17T15:03:12.373Z,999.90
2023-04-17T15:05:40.508Z,999.90
2023-04-17T15:08:08.472Z,999.90
2023-04-17T15:10:50.152Z,999.90
2023-04-17T15:13:20.432Z,999.90
2023-04-17T15:15:48.394Z,999.90
2023-04-17T15:18:16.380Z,999.90
2023-04-17T15:20:44.320Z,999.90
2023-04-17T15:23:12.263Z,999.90
2023-04-17T15:25:40.298Z,999.90
2023-04-17T15:28:08.747Z,999.90
2023-04-17T15:30:38.056Z,999.90
2023-04-17T15:33:08.473Z,999.90
2023-04-17T15:35:37.996Z,999.90
2023-04-17T15:38:06.842Z,999.90
2023-04-17T15:40:35.050Z,999.90
2023-04-17T15:43:03.506Z,999.90
2023-04-17T15:45:31.933Z,999.90
2023-04-17T15:48:02.045Z,999.90
2023-04-17T15:50:30.131Z,999.90
2023-04-17T15:52:58.152Z,999.90
2023-04-17T15:55:26.175Z,999.90
2023-04-17T15:57:54.176Z,999.90
2023-04-17T16:00:22.628Z,999.90
2023-04-17T16:02:51.923Z,999.90
2023-04-17T16:05:21.948Z,999.90
2023-04-17T16:07:49.940Z,999.90
2023-04-17T16:10:18.976Z,999.90
2023-04-17T16:12:47.584Z,999.90
2023-04-17T16:15:17.085Z,999.90
2023-04-17T16:17:45.592Z,999.90
2023-04-17T16:20:14.424Z,999.90
2023-04-17T16:22:43.762Z,999.90
2023-04-17T16:25:12.561Z,999.90
2023-04-17T16:27:40.661Z,999.90
2023-04-17T16:30:10.421Z,999.90
2023-04-17T16:32:38.416Z,999.90
2023-04-17T16:35:07.475Z,999.90
2023-04-17T16:37:35.490Z,999.90
2023-04-17T16:40:05.403Z,999.90
2023-04-17T16:42:33.477Z,999.90
2023-04-17T16:45:01.677Z,999.90
2023-04-17T16:47:30.518Z,999.90
2023-04-17T16:49:58.622Z,999.90
2023-04-17T16:52:26.651Z,999.90
2023-04-17T16:54:54.646Z,999.90
2023-04-17T16:57:24.131Z,999.90
2023-04-17T16:59:52.100Z,999.90
2023-04-17T17:02:20.085Z,999.90
2023-04-17T17:04:48.216Z,999.90
2023-04-17T17:07:16.285Z,999.90
2023-04-17T17:09:44.269Z,999.90
2023-04-17T17:12:12.218Z,999.90
2023-04-17T17:14:41.664Z,999.90
2023-04-17T17:17:09.850Z,999.90
2023-04-17T17:19:37.779Z,999.90
2023-04-17T17:22:05.784Z,999.90
2023-04-17T17:24:33.813Z,999.90
2023-04-17T17:27:01.796Z,999.90
2023-04-17T17:29:29.965Z,999.90
2023-04-17T17:32:01.804Z,999.90
2023-04-17T17:34:30.604Z,999.90
2023-04-17T17:36:59.480Z,999.90
2023-04-17T17:39:27.622Z,999.90
2023-04-17T17:41:57.288Z,999.90
2023-04-17T17:44:25.377Z,999.90
2023-04-17T17:46:53.408Z,999.90
2023-04-17T17:49:23.214Z,999.90
2023-04-17T17:51:51.151Z,999.90
2023-04-17T17:54:19.159Z,999.90
2023-04-17T17:56:47.148Z,999.90
2023-04-17T17:59:15.301Z,999.90
2023-04-17T18:01:43.273Z,999.90
2023-04-17T18:04:11.692Z,999.90
2023-04-17T18:06:41.345Z,999.90
2023-04-17T18:09:09.358Z,999.90
2023-04-17T18:11:38.256Z,999.90
2023-04-17T18:14:06.648Z,999.90
2023-04-17T18:16:36.200Z,999.90
2023-04-17T18:19:05.059Z,999.90
2023-04-17T18:21:33.804Z,999.90
2023-04-17T18:24:03.143Z,999.90
2023-04-17T18:26:31.108Z,999.33
2023-04-17T18:28:59.068Z,999.90
2023-04-17T18:31:28.282Z,999.90
2023-04-17T18:33:56.431Z,999.90
2023-04-17T18:36:24.478Z,847.40
2023-04-17T18:38:52.435Z,982.33
2023-04-17T18:41:21.736Z,973.33
2023-04-17T18:43:49.831Z,934.83
2023-04-17T18:46:18.259Z,999.90
2023-04-17T18:48:46.364Z,999.90
2023-04-17T18:51:15.555Z,999.90
2023-04-17T18:53:43.636Z,999.90
2023-04-17T18:56:13.715Z,999.90
2023-04-17T18:58:43.170Z,999.90
2023-04-17T19:01:11.168Z,999.90
2023-04-17T19:03:39.853Z,999.90
2023-04-17T19:06:07.988Z,999.90
2023-04-17T19:08:36.086Z,999.90
2023-04-17T19:11:04.156Z,999.90
2023-04-17T19:13:32.243Z,999.90
2023-04-17T19:16:01.582Z,999.90
2023-04-17T19:18:29.608Z,991.93
2023-04-17T19:20:57.587Z,999.90
2023-04-17T19:23:25.600Z,999.90
2023-04-17T19:25:54.823Z,999.90
2023-04-17T19:28:22.995Z,999.90
2023-04-17T19:30:50.939Z,999.90
2023-04-17T19:33:20.319Z,999.90
2023-04-17T19:35:48.340Z,999.90
2023-04-17T19:38:17.084Z,999.90
2023-04-17T19:40:47.958Z,956.23
2023-04-17T19:43:15.987Z,999.90
2023-04-17T19:45:44.086Z,852.27
2023-04-17T19:48:12.096Z,490.43
2023-04-17T19:50:41.389Z,864.60
2023-04-17T19:53:09.360Z,755.73
2023-04-17T19:55:37.303Z,590.93
2023-04-17T19:58:05.264Z,524.50
2023-04-17T20:00:33.201Z,432.07
2023-04-17T20:03:01.263Z,586.77
2023-04-17T20:05:30.460Z,199.17
2023-04-17T20:07:59.758Z,111.97
2023-04-17T20:10:27.899Z,163.60
2023-04-17T20:12:55.850Z,212.17
2023-04-17T20:15:23.813Z,171.97
2023-04-17T20:17:52.100Z,239.03
2023-04-17T20:20:20.111Z,147.83
2023-04-17T20:22:48.296Z,171.93
2023-04-17T20:25:18.569Z,238.73
2023-04-17T20:27:46.512Z,54.53
2023-04-17T20:30:15.488Z,85.97
2023-04-17T20:32:43.578Z,139.83
2023-04-17T20:35:11.654Z,252.30
2023-04-17T20:37:40.735Z,82.37
2023-04-17T20:40:11.069Z,191.37
2023-04-17T20:42:40.607Z,87.27
2023-04-17T20:45:09.684Z,166.50
2023-04-17T20:47:39.559Z,134.13
2023-04-17T20:50:13.160Z,128.63
2023-04-17T20:52:41.218Z,118.50
2023-04-17T20:55:09.922Z,108.57
2023-04-17T20:57:37.854Z,89.33
2023-04-17T21:00:09.102Z,83.80
2023-04-17T21:02:37.201Z,226.87
2023-04-17T21:05:06.049Z,181.00
2023-04-17T21:07:34.052Z,196.37
2023-04-17T21:10:02.137Z,159.47
2023-04-17T21:12:32.685Z,76.93
2023-04-17T21:15:00.709Z,117.97
2023-04-17T21:17:30.070Z,171.80
2023-04-17T21:19:58.074Z,88.83
2023-04-17T21:22:26.094Z,85.03
2023-04-17T21:24:54.053Z,138.40
2023-04-17T21:27:22.006Z,355.03
2023-04-17T21:29:50.604Z,149.50
2023-04-17T21:32:18.563Z,174.03
2023-04-17T21:34:47.928Z,102.13
2023-04-17T21:37:15.875Z,137.57
2023-04-17T21:39:43.959Z,156.13
2023-04-17T21:42:11.962Z,168.17
2023-04-17T21:44:39.918Z,199.30
2023-04-17T21:47:07.855Z,127.67
2023-04-17T21:49:35.823Z,189.97
2023-04-17T21:52:05.167Z,115.03
2023-04-17T21:54:34.121Z,57.53
2023-04-17T21:57:03.363Z,87.90
2023-04-17T21:59:31.747Z,251.73
2023-04-17T22:02:00.171Z,192.57
2023-04-17T22:04:28.272Z,107.37
2023-04-17T22:06:57.603Z,105.47
2023-04-17T22:09:28.975Z,53.73
2023-04-17T22:11:58.774Z,76.47
2023-04-17T22:14:26.792Z,106.40
2023-04-17T22:16:54.799Z,76.70
2023-04-17T22:19:22.776Z,143.30
2023-04-17T22:21:51.007Z,144.63
2023-04-17T22:24:18.968Z,82.60
2023-04-17T22:26:48.347Z,88.27
2023-04-17T22:29:16.787Z,78.00
2023-04-17T22:31:45.195Z,49.10
2023-04-17T22:34:13.304Z,69.97
2023-04-17T22:36:41.293Z,64.53
2023-04-17T22:39:09.376Z,89.07
2023-04-17T22:41:37.295Z,66.03
2023-04-17T22:44:07.096Z,50.03
2023-04-17T22:46:35.089Z,70.70
2023-04-17T22:49:03.537Z,88.13
2023-04-17T22:51:31.462Z,95.03
2023-04-17T22:54:01.592Z,61.27
2023-04-17T22:56:34.885Z,223.80
2023-04-17T22:59:02.852Z,46.27
2023-04-17T23:01:32.232Z,43.90
2023-04-17T23:04:00.260Z,50.67
2023-04-17T23:06:28.436Z,51.00
2023-04-17T23:08:57.236Z,60.80
2023-04-17T23:11:25.209Z,47.73
2023-04-17T23:13:53.139Z,40.83
2023-04-17T23:16:21.154Z,37.53
2023-04-17T23:18:50.512Z,49.30
2023-04-17T23:21:18.750Z,66.80
2023-04-17T23:23:48.107Z,37.73
2023-04-17T23:26:16.328Z,32.10
2023-04-17T23:28:44.485Z,63.20
2023-04-17T23:31:12.486Z,59.47
2023-04-17T23:33:40.461Z,60.47
2023-04-17T23:36:09.987Z,54.27
2023-04-17T23:38:37.914Z,97.57
2023-04-17T23:41:06.116Z,87.73
2023-04-17T23:43:34.075Z,45.80
2023-04-17T23:46:02.051Z,67.17
2023-04-17T23:48:30.051Z,62.23
2023-04-17T23:50:58.079Z,32.97
2023-04-17T23:53:27.441Z,30.33
2023-04-17T23:55:55.409Z,404.27
2023-04-17T23:58:23.354Z,85.77
